Time;durP1;ratioP1;P1;durP2;ratioP2;P2;SDS_P1;SDS_P2;PMS_P1;PMS_P2;Temp;Humidity;BMP_temperature;BMP_pressure;BME280_temperature;BME280_humidity;BME280_pressure;Samples;Min_cycle;Max_cycle;Signal;HPM_P1;HPM_P2
2022/10/26 00:01:13;;;;;;;5.30;3.45;;;;;;;16.19;71.86;63668.69;4984953;28;20196;-77
2022/10/26 00:03:41;;;;;;;7.38;3.40;;;;;;;16.29;71.01;63676.00;4986158;28;20200;-76
2022/10/26 00:06:10;;;;;;;6.93;3.72;;;;;;;16.26;70.92;63678.53;4991258;28;20227;-77
2022/10/26 00:08:38;;;;;;;6.65;3.95;;;;;;;16.19;71.47;63669.19;4986460;28;20223;-76
2022/10/26 00:11:05;;;;;;;7.32;3.50;;;;;;;16.17;71.36;63672.25;4984529;28;20228;-77
2022/10/26 00:13:33;;;;;;;9.90;3.63;;;;;;;16.19;70.80;63671.78;4987152;28;20432;-77
2022/10/26 00:16:02;;;;;;;4.05;3.63;;;;;;;16.09;71.64;63663.94;4988118;28;20250;-77
2022/10/26 00:18:29;;;;;;;7.72;3.80;;;;;;;16.16;71.30;63668.13;4999144;28;20199;-77
2022/10/26 00:20:56;;;;;;;5.13;3.53;;;;;;;16.13;71.28;63665.00;4987382;28;20238;-76
2022/10/26 00:23:22;;;;;;;3.92;3.50;;;;;;;16.04;71.97;63658.22;4990363;28;20464;-76
2022/10/26 00:25:55;;;;;;;7.10;3.65;;;;;;;16.06;71.29;63657.72;4976030;28;20386;-76
2022/10/26 00:28:22;;;;;;;10.43;3.47;;;;;;;16.06;71.40;63658.25;4980027;28;20552;-77
2022/10/26 00:30:49;;;;;;;4.38;3.15;;;;;;;16.03;71.17;63660.25;4988693;28;20550;-76
2022/10/26 00:33:18;;;;;;;5.35;2.78;;;;;;;15.99;70.80;63650.97;4986142;28;20199;-77
2022/10/26 00:35:47;;;;;;;5.82;3.05;;;;;;;16.00;70.38;63654.06;5006583;28;20492;-77
2022/10/26 00:38:14;;;;;;;9.75;2.80;;;;;;;15.98;70.85;63646.84;4993803;28;20543;-76
2022/10/26 00:40:41;;;;;;;17.00;4.38;;;;;;;15.88;72.07;63636.44;4985196;28;20385;-76
2022/10/26 00:43:15;;;;;;;3.90;2.90;;;;;;;15.95;71.69;63648.84;4985525;28;20223;-77
2022/10/26 00:45:44;;;;;;;8.73;4.07;;;;;;;15.93;71.94;63649.88;4987221;28;20235;-76
2022/10/26 00:48:19;;;;;;;4.45;3.08;;;;;;;15.91;71.77;63642.13;4979366;28;20516;-76
2022/10/26 00:50:48;;;;;;;4.03;3.00;;;;;;;15.89;71.83;63645.69;4965771;28;20306;-76
2022/10/26 00:53:16;;;;;;;5.05;3.13;;;;;;;15.89;71.61;63642.63;4967367;29;20224;-76
2022/10/26 00:55:47;;;;;;;5.70;3.22;;;;;;;15.87;71.30;63635.41;4974404;28;20204;-76
2022/10/26 00:58:14;;;;;;;6.32;3.15;;;;;;;15.85;70.92;63635.88;4989416;28;20211;-77
2022/10/26 01:00:42;;;;;;;3.20;2.80;;;;;;;15.83;70.76;63634.34;4990731;28;20234;-77
2022/10/26 01:03:10;;;;;;;4.63;2.17;;;;;;;15.81;71.07;63632.25;4988894;28;20354;-78
2022/10/26 01:05:41;;;;;;;3.92;2.97;;;;;;;15.74;71.45;63624.97;4991668;28;20204;-76
2022/10/26 01:08:09;;;;;;;4.30;3.15;;;;;;;15.72;71.13;63620.31;4972329;28;20256;-76
2022/10/26 01:10:39;;;;;;;4.40;2.75;;;;;;;15.75;71.37;63625.50;4968976;28;20220;-75
2022/10/26 01:13:06;;;;;;;2.67;2.47;;;;;;;15.67;71.46;63619.75;4972125;28;20223;-76
2022/10/26 01:15:45;;;;;;;5.63;3.08;;;;;;;15.65;71.37;63617.69;4979611;28;20252;-76
2022/10/26 01:18:20;;;;;;;3.83;2.75;;;;;;;15.61;71.18;63613.50;4972890;28;20208;-77
2022/10/26 01:21:36;;;;;;;7.43;2.70;;;;;;;15.71;70.59;63623.91;4968781;28;20196;-78
2022/10/26 01:24:47;;;;;;;6.03;2.40;;;;;;;15.58;71.13;63605.25;4982628;28;20215;-76
2022/10/26 01:27:27;;;;;;;2.53;2.33;;;;;;;15.51;71.50;63603.63;4917689;29;20218;-75
2022/10/26 01:30:25;;;;;;;2.70;2.40;;;;;;;15.49;71.69;63601.03;4971227;28;20227;-76
2022/10/26 01:33:06;;;;;;;7.30;3.00;;;;;;;15.39;72.40;63586.00;4993803;28;20270;-76
2022/10/26 01:35:38;;;;;;;3.17;2.40;;;;;;;15.39;72.33;63591.16;5012543;28;20195;-77
2022/10/26 01:38:11;;;;;;;3.22;2.63;;;;;;;15.42;72.54;63591.72;5007678;28;20370;-76
2022/10/26 01:40:42;;;;;;;2.50;2.30;;;;;;;15.33;72.87;63579.78;4998321;28;20196;-76
2022/10/26 01:43:13;;;;;;;4.65;2.80;;;;;;;15.25;73.65;63574.03;4990835;28;20267;-76
2022/10/26 01:45:43;;;;;;;8.13;3.47;;;;;;;15.17;73.83;63565.69;4989770;28;20196;-77
2022/10/26 01:48:16;;;;;;;5.47;2.50;;;;;;;15.15;74.09;63563.13;4987768;28;20516;-76
2022/10/26 01:50:46;;;;;;;4.18;2.70;;;;;;;15.10;74.27;63557.91;4983255;28;20215;-77
2022/10/26 01:53:15;;;;;;;3.88;2.67;;;;;;;15.06;74.91;63554.28;5011391;28;20207;-76
2022/10/26 01:55:47;;;;;;;3.55;2.72;;;;;;;14.99;75.61;63547.53;5007179;28;20341;-76
2022/10/26 01:58:27;;;;;;;3.67;2.67;;;;;;;14.98;75.46;63548.53;5006084;28;20210;-77
2022/10/26 02:01:06;;;;;;;3.10;2.80;;;;;;;14.92;75.57;63534.59;4999089;28;20195;-76
2022/10/26 02:03:40;;;;;;;2.40;2.20;;;;;;;14.81;76.28;63531.38;4968080;29;20207;-77
2022/10/26 02:06:17;;;;;;;3.50;2.53;;;;;;;14.84;76.58;63536.56;4971362;28;20220;-78
2022/10/26 02:08:56;;;;;;;6.20;2.45;;;;;;;14.79;77.29;63529.31;4979381;28;20350;-76
2022/10/26 02:11:37;;;;;;;5.57;2.83;;;;;;;14.73;77.90;63520.00;4987369;28;20274;-77
2022/10/26 02:14:12;;;;;;;3.08;2.70;;;;;;;14.63;78.89;63507.56;4984172;28;20203;-76
2022/10/26 02:16:46;;;;;;;3.70;3.03;;;;;;;14.48;79.98;63494.03;4972582;28;20279;-76
2022/10/26 02:19:25;;;;;;;8.35;3.00;;;;;;;14.36;80.60;63481.56;5002121;28;20278;-77
2022/10/26 02:21:56;;;;;;;5.82;2.78;;;;;;;14.36;80.84;63482.06;5007122;28;20235;-76
2022/10/26 02:24:26;;;;;;;2.88;2.72;;;;;;;14.27;82.27;63472.72;4972145;28;20201;-76
2022/10/26 02:26:54;;;;;;;7.63;2.80;;;;;;;14.09;83.71;63451.47;4991365;28;20299;-76
2022/10/26 02:29:23;;;;;;;3.75;3.25;;;;;;;14.06;84.10;63456.03;5006424;28;20246;-76
2022/10/26 02:31:51;;;;;;;3.45;2.65;;;;;;;14.01;84.77;63445.72;5007856;28;20211;-75
2022/10/26 02:34:25;;;;;;;8.05;3.40;;;;;;;13.94;85.13;63444.09;5004779;28;20206;-77
2022/10/26 02:36:55;;;;;;;4.07;2.28;;;;;;;13.89;85.66;63433.28;4999432;28;20550;-76
2022/10/26 02:39:24;;;;;;;4.50;3.30;;;;;;;13.85;86.11;63434.22;5006598;28;20290;-76
2022/10/26 02:41:52;;;;;;;3.53;3.20;;;;;;;13.73;87.23;63416.66;5006435;28;20270;-77
2022/10/26 02:44:25;;;;;;;7.38;3.00;;;;;;;13.71;87.47;63415.09;5000263;28;20265;-78
2022/10/26 02:46:54;;;;;;;5.55;3.92;;;;;;;13.65;88.40;63408.38;5008285;28;20227;-76
2022/10/26 02:49:23;;;;;;;7.65;3.10;;;;;;;13.62;88.55;63410.34;5006093;28;20203;-77
2022/10/26 02:51:53;;;;;;;5.68;3.20;;;;;;;13.53;89.22;63401.03;5005086;28;20562;-76
2022/10/26 02:54:27;;;;;;;4.30;3.22;;;;;;;13.48;89.44;63390.69;4987833;28;20492;-77
2022/10/26 02:56:58;;;;;;;4.90;3.05;;;;;;;13.42;89.84;63387.03;4987859;28;20220;-76
2022/10/26 02:59:31;;;;;;;3.92;2.80;;;;;;;13.45;91.36;63388.13;4988758;28;20194;-77
2022/10/26 03:01:58;;;;;;;5.50;3.22;;;;;;;13.32;92.16;63377.19;4982835;28;20236;-75
2022/10/26 03:04:30;;;;;;;9.10;3.30;;;;;;;13.31;92.96;63371.03;5004152;28;20207;-77
2022/10/26 03:06:59;;;;;;;4.57;3.35;;;;;;;13.27;93.70;63371.47;5005505;28;20233;-76
2022/10/26 03:09:26;;;;;;;5.25;3.35;;;;;;;13.30;93.39;63372.56;5005271;28;20246;-77
2022/10/26 03:11:59;;;;;;;5.70;3.22;;;;;;;13.35;94.68;63377.22;4996186;28;20295;-78
2022/10/26 03:14:26;;;;;;;7.15;3.45;;;;;;;13.38;94.29;63380.31;4987413;28;20192;-77
2022/10/26 03:16:53;;;;;;;3.65;3.33;;;;;;;13.34;95.11;63376.69;4986903;28;20224;-77
2022/10/26 03:19:20;;;;;;;4.10;3.60;;;;;;;13.22;95.47;63363.75;4987824;28;20275;-76
2022/10/26 03:21:48;;;;;;;9.38;3.70;;;;;;;13.17;96.25;63363.66;4987194;28;20224;-77
2022/10/26 03:24:15;;;;;;;5.20;4.55;;;;;;;13.15;97.13;63362.09;4985079;28;20199;-77
2022/10/26 03:26:42;;;;;;;5.82;4.85;;;;;;;13.15;98.04;63354.44;4971546;28;20292;-77
2022/10/26 03:29:09;;;;;;;6.32;4.13;;;;;;;13.10;98.44;63351.78;4966046;28;20205;-76
2022/10/26 03:31:36;;;;;;;7.63;4.22;;;;;;;13.10;98.26;63353.84;5005599;28;20306;-76
2022/10/26 03:34:03;;;;;;;7.95;3.90;;;;;;;13.06;99.38;63347.66;4987114;28;20525;-76
2022/10/26 03:36:30;;;;;;;7.43;4.07;;;;;;;13.12;100.00;63350.78;4987315;28;20220;-78
2022/10/26 03:38:58;;;;;;;9.95;4.70;;;;;;;13.06;100.00;63352.25;4986809;28;20484;-76
2022/10/26 03:41:25;;;;;;;6.65;4.07;;;;;;;13.04;100.00;63343.03;4985708;28;20224;-76
2022/10/26 03:43:52;;;;;;;11.45;4.50;;;;;;;12.99;100.00;63342.94;4985572;28;20403;-76
2022/10/26 03:46:19;;;;;;;12.25;5.45;;;;;;;12.95;100.00;63333.66;4986503;28;20242;-77
2022/10/26 03:48:46;;;;;;;5.70;5.20;;;;;;;12.91;100.00;63334.13;4985398;28;20213;-77
2022/10/26 03:51:12;;;;;;;7.05;4.65;;;;;;;12.93;100.00;63333.63;4985075;28;20244;-77
2022/10/26 03:53:39;;;;;;;9.07;4.72;;;;;;;12.87;100.00;63332.53;4990534;28;20400;-76
2022/10/26 03:56:08;;;;;;;12.18;5.75;;;;;;;12.85;100.00;63328.41;4985585;28;20223;-78
2022/10/26 03:58:35;;;;;;;10.55;5.43;;;;;;;12.82;100.00;63330.91;4984902;28;20200;-77
2022/10/26 04:01:02;;;;;;;9.93;5.85;;;;;;;12.84;100.00;63321.75;4987015;28;20224;-76
2022/10/26 04:03:29;;;;;;;9.32;5.55;;;;;;;12.84;100.00;63329.91;4989782;28;20207;-77
2022/10/26 04:05:59;;;;;;;7.07;5.45;;;;;;;12.79;100.00;63322.69;4993779;28;20203;-76
2022/10/26 04:08:26;;;;;;;10.80;5.60;;;;;;;12.73;100.00;63318.53;5001239;28;20242;-74
2022/10/26 04:10:53;;;;;;;7.38;5.18;;;;;;;12.69;100.00;63307.22;4985656;28;20236;-75
2022/10/26 04:13:21;;;;;;;4.65;4.20;;;;;;;12.66;100.00;63306.16;4980754;28;20203;-75
2022/10/26 04:15:48;;;;;;;5.72;4.70;;;;;;;12.67;100.00;63307.19;4999564;28;20210;-76
2022/10/26 04:18:15;;;;;;;6.40;4.97;;;;;;;12.59;100.00;63298.88;4997166;28;20200;-76
2022/10/26 04:20:42;;;;;;;7.38;4.93;;;;;;;12.65;100.00;63305.63;4984516;28;20222;-76
2022/10/26 04:23:12;;;;;;;8.45;4.63;;;;;;;12.66;100.00;63306.16;4982015;28;20224;-76
2022/10/26 04:25:40;;;;;;;6.65;5.45;;;;;;;12.68;100.00;63303.13;4982391;28;20204;-75
2022/10/26 04:28:07;;;;;;;9.13;5.13;;;;;;;12.63;100.00;63301.00;4983141;28;20223;-74
2022/10/26 04:30:36;;;;;;;6.90;4.38;;;;;;;12.63;100.00;63308.16;4979598;28;20231;-76
2022/10/26 04:33:04;;;;;;;8.25;4.28;;;;;;;12.66;100.00;63308.72;4990669;28;20231;-76
2022/10/26 04:35:31;;;;;;;8.35;4.57;;;;;;;12.65;100.00;63305.63;4993610;28;20242;-77
2022/10/26 04:37:59;;;;;;;7.32;4.63;;;;;;;12.59;100.00;63296.88;4990329;28;20290;-77
2022/10/26 04:40:25;;;;;;;3.83;3.50;;;;;;;12.66;100.00;63309.22;4989026;28;20196;-77
2022/10/26 04:42:52;;;;;;;8.15;3.72;;;;;;;12.64;100.00;63306.63;4990763;28;20354;-77
2022/10/26 04:45:19;;;;;;;8.60;3.80;;;;;;;12.66;100.00;63308.72;4988237;28;20211;-78
2022/10/26 04:47:48;;;;;;;4.95;3.50;;;;;;;12.69;100.00;63309.78;4988477;28;20220;-76
2022/10/26 04:50:14;;;;;;;7.22;4.18;;;;;;;12.73;100.00;63313.91;4988787;28;20210;-77
2022/10/26 04:52:41;;;;;;;6.68;3.65;;;;;;;12.80;100.00;63323.22;5001783;28;20250;-78
2022/10/26 04:55:08;;;;;;;3.80;3.47;;;;;;;12.84;100.00;63329.41;4990769;28;20200;-78
2022/10/26 04:57:36;;;;;;;6.65;3.95;;;;;;;12.85;100.00;63325.84;4993631;28;20224;-77
2022/10/26 05:00:04;;;;;;;4.43;4.03;;;;;;;12.94;100.00;63335.19;4992115;28;20242;-76
2022/10/26 05:02:32;;;;;;;4.90;3.53;;;;;;;12.91;100.00;63336.69;4999008;28;20299;-77
2022/10/26 05:05:00;;;;;;;6.30;4.57;;;;;;;12.87;100.00;63333.03;4992791;28;20204;-77
2022/10/26 05:07:27;;;;;;;5.60;4.07;;;;;;;12.87;100.00;63332.53;4989914;28;20283;-77
2022/10/26 05:09:54;;;;;;;13.73;4.00;;;;;;;12.82;100.00;63327.84;4988070;28;20243;-75
2022/10/26 05:12:22;;;;;;;9.05;3.95;;;;;;;12.82;100.00;63320.19;4992947;28;20303;-77
2022/10/26 05:14:49;;;;;;;6.13;4.20;;;;;;;12.87;100.00;63327.41;4990873;28;20216;-75
2022/10/26 05:17:16;;;;;;;6.07;4.20;;;;;;;12.93;100.00;63336.19;4988509;28;20232;-77
2022/10/26 05:19:43;;;;;;;5.78;3.75;;;;;;;12.92;100.00;63335.16;4987809;28;20298;-77
2022/10/26 05:22:11;;;;;;;7.65;4.53;;;;;;;12.95;100.00;63336.22;4989887;28;20223;-77
2022/10/26 05:24:38;;;;;;;5.72;4.03;;;;;;;12.95;100.00;63333.66;4988429;28;20259;-76
2022/10/26 05:27:05;;;;;;;10.93;4.10;;;;;;;12.99;100.00;63340.38;4988569;28;20388;-76
2022/10/26 05:29:32;;;;;;;10.90;4.18;;;;;;;12.97;100.00;63340.84;4991433;28;20206;-77
2022/10/26 05:31:59;;;;;;;7.72;3.55;;;;;;;13.02;100.00;63340.94;4988825;28;20246;-76
2022/10/26 05:34:26;;;;;;;10.23;4.10;;;;;;;13.07;100.00;63348.69;4989148;28;20196;-76
2022/10/26 05:36:54;;;;;;;5.07;4.28;;;;;;;13.13;100.00;63351.84;4988249;28;20234;-77
2022/10/26 05:39:22;;;;;;;7.55;4.15;;;;;;;13.20;100.00;63356.56;4991109;28;20235;-77
2022/10/26 05:41:49;;;;;;;8.05;4.28;;;;;;;13.19;100.00;63363.69;4989833;28;20220;-77
2022/10/26 05:44:16;;;;;;;7.05;4.55;;;;;;;13.29;100.00;63376.63;4992520;28;20262;-77
2022/10/26 05:46:43;;;;;;;6.20;4.55;;;;;;;13.34;100.00;63379.25;4994675;28;20362;-77
2022/10/26 05:49:10;;;;;;;9.43;4.40;;;;;;;13.33;100.00;63372.59;5008581;28;20210;-77
2022/10/26 05:51:38;;;;;;;10.35;5.75;;;;;;;13.43;100.00;63386.03;5008567;28;20568;-75
2022/10/26 05:54:05;;;;;;;8.65;5.38;;;;;;;13.50;100.00;63387.66;4998979;28;20212;-76
2022/10/26 05:56:37;;;;;;;10.23;5.97;;;;;;;13.55;100.00;63397.97;5003167;28;20230;-76
2022/10/26 05:59:05;;;;;;;6.47;4.78;;;;;;;13.65;100.00;63408.88;5012116;28;20428;-75
2022/10/26 06:01:43;;;;;;;16.83;5.32;;;;;;;13.80;100.00;63421.88;5008774;28;20583;-77
2022/10/26 06:04:21;;;;;;;12.40;4.97;;;;;;;14.02;100.00;63446.75;4991705;28;20208;-75
2022/10/26 06:06:53;;;;;;;5.25;4.85;;;;;;;14.21;100.00;63463.94;5009691;28;20227;-76
2022/10/26 06:09:21;;;;;;;9.85;5.10;;;;;;;14.31;100.00;63474.31;5004394;28;20234;-76
2022/10/26 06:11:50;;;;;;;12.15;5.35;;;;;;;14.38;100.00;63486.19;4996138;28;20236;-75
2022/10/26 06:14:17;;;;;;;13.98;6.32;;;;;;;14.40;100.00;63481.13;4990297;28;20272;-77
2022/10/26 06:17:03;;;;;;;10.82;5.97;;;;;;;14.23;100.00;63471.13;4981737;28;20341;-77
2022/10/26 06:19:42;;;;;;;16.77;6.15;;;;;;;14.29;100.00;63474.81;4978696;28;20401;-76
2022/10/26 06:22:23;;;;;;;11.32;5.85;;;;;;;14.38;100.00;63483.63;4976334;28;20239;-76
2022/10/26 06:25:00;;;;;;;13.27;6.55;;;;;;;14.37;100.00;63485.69;4979909;28;20188;-76
2022/10/26 06:27:37;;;;;;;12.50;6.18;;;;;;;14.42;100.00;63490.34;4980124;28;20570;-76
2022/10/26 06:30:06;;;;;;;12.00;6.05;;;;;;;14.55;100.00;63498.72;4987293;28;20241;-76
2022/10/26 06:32:34;;;;;;;11.88;6.38;;;;;;;14.51;100.00;63492.03;4979334;28;20252;-75
2022/10/26 06:35:12;;;;;;;6.78;4.57;;;;;;;14.38;100.00;63481.59;4985267;28;20431;-78
2022/10/26 06:37:40;;;;;;;8.43;4.63;;;;;;;14.46;100.00;63489.91;4981228;28;20442;-77
2022/10/26 06:40:09;;;;;;;11.85;5.20;;;;;;;14.42;100.00;63485.75;4977189;28;20204;-77
2022/10/26 06:42:38;;;;;;;5.35;4.85;;;;;;;14.37;100.00;63480.56;4981989;28;20571;-76
2022/10/26 06:45:06;;;;;;;7.28;4.97;;;;;;;14.32;100.00;63475.38;4990603;28;20196;-75
2022/10/26 06:47:40;;;;;;;8.30;5.70;;;;;;;14.46;100.00;63489.38;5004820;28;20270;-76
2022/10/26 06:50:19;;;;;;;5.28;4.70;;;;;;;14.56;100.00;63502.34;4969981;28;20216;-76
2022/10/26 06:52:56;;;;;;;6.13;5.20;;;;;;;14.59;100.00;63508.00;4968470;28;20597;-76
2022/10/26 06:55:25;;;;;;;7.30;4.45;;;;;;;14.63;100.00;63507.56;4987213;28;20199;-76
2022/10/26 06:57:54;;;;;;;8.52;4.38;;;;;;;14.82;99.46;63527.28;4992514;28;20510;-75
2022/10/26 07:00:23;;;;;;;15.45;5.20;;;;;;;14.88;99.58;63533.00;4987810;28;20219;-75
2022/10/26 07:02:50;;;;;;;9.07;5.03;;;;;;;15.07;97.27;63555.84;4985186;28;20220;-75
2022/10/26 07:05:18;;;;;;;7.65;5.43;;;;;;;15.19;96.81;63567.78;4993854;28;20223;-76
2022/10/26 07:07:46;;;;;;;10.35;4.35;;;;;;;15.27;95.22;63578.16;4985075;28;20236;-75
2022/10/26 07:10:14;;;;;;;5.93;3.97;;;;;;;15.14;94.26;63562.59;4984169;28;20231;-77
2022/10/26 07:12:41;;;;;;;11.35;4.78;;;;;;;15.20;95.11;63568.31;4986558;28;20242;-77
2022/10/26 07:15:10;;;;;;;9.07;4.60;;;;;;;15.27;95.81;63575.59;4986572;28;20215;-78
2022/10/26 07:17:43;;;;;;;10.73;4.78;;;;;;;15.20;95.58;63563.19;4986726;28;20263;-76
2022/10/26 07:20:11;;;;;;;10.73;5.15;;;;;;;15.27;94.29;63578.16;4986762;28;20219;-76
2022/10/26 07:22:38;;;;;;;6.82;5.13;;;;;;;15.32;94.01;63583.88;4987128;28;20224;-76
2022/10/26 07:25:06;;;;;;;10.20;5.53;;;;;;;15.29;93.61;63577.66;4982726;28;20492;-76
2022/10/26 07:27:34;;;;;;;6.22;4.55;;;;;;;15.36;93.99;63579.81;4974285;28;20219;-76
2022/10/26 07:30:00;;;;;;;9.00;5.07;;;;;;;15.38;94.82;63590.09;4980055;28;20406;-75
2022/10/26 07:32:29;;;;;;;6.57;4.97;;;;;;;15.37;93.23;63589.06;4985243;28;20583;-77
2022/10/26 07:34:56;;;;;;;11.85;5.35;;;;;;;15.36;93.30;63587.50;4983782;28;20203;-75
2022/10/26 07:37:23;;;;;;;7.35;4.80;;;;;;;15.40;93.01;63587.06;4987309;28;20560;-76
2022/10/26 07:39:51;;;;;;;6.20;4.90;;;;;;;15.51;93.30;63595.41;4985665;28;20259;-76
2022/10/26 07:42:18;;;;;;;5.03;4.50;;;;;;;15.60;91.37;63612.47;4981576;28;20294;-76
2022/10/26 07:44:45;;;;;;;7.00;5.03;;;;;;;15.70;90.56;63620.81;4986664;28;20267;-76
2022/10/26 07:47:11;;;;;;;6.65;4.47;;;;;;;15.78;90.90;63626.03;4989708;28;20250;-76
2022/10/26 07:49:40;;;;;;;7.88;4.65;;;;;;;15.75;89.88;63626.03;4996379;28;20213;-78
2022/10/26 07:52:07;;;;;;;9.50;4.43;;;;;;;15.96;88.32;63649.91;4982507;28;20235;-78
2022/10/26 07:54:34;;;;;;;7.15;5.10;;;;;;;15.93;88.30;63644.19;4987957;28;20225;-78
2022/10/26 07:57:01;;;;;;;6.05;4.88;;;;;;;16.10;86.77;63661.91;4986372;28;20576;-79
2022/10/26 07:59:27;;;;;;;9.95;4.57;;;;;;;16.14;86.60;63663.47;4988352;28;20462;-77
2022/10/26 08:01:54;;;;;;;7.38;5.03;;;;;;;16.28;86.24;63680.59;4986200;28;20251;-78
2022/10/26 08:04:21;;;;;;;11.07;5.38;;;;;;;16.48;85.08;63700.94;4985770;28;20258;-78
2022/10/26 08:06:49;;;;;;;7.53;4.85;;;;;;;16.26;86.48;63683.16;4970627;28;20661;-79
2022/10/26 08:09:16;;;;;;;5.93;4.20;;;;;;;16.41;84.25;63694.13;4987353;28;20203;-78
2022/10/26 08:11:43;;;;;;;7.38;5.00;;;;;;;16.51;84.97;63704.03;4990005;28;20258;-80
2022/10/26 08:14:10;;;;;;;16.35;5.20;;;;;;;16.69;83.05;63723.28;4994396;28;20217;-77
2022/10/26 08:16:38;;;;;;;7.50;4.32;;;;;;;16.89;80.86;63746.69;4990679;28;20226;-78
2022/10/26 08:19:06;;;;;;;7.95;4.30;;;;;;;17.05;79.90;63760.75;4989729;28;20218;-78
2022/10/26 08:21:33;;;;;;;7.68;4.65;;;;;;;17.14;78.03;63772.69;4979864;28;20227;-78
2022/10/26 08:24:01;;;;;;;9.13;4.55;;;;;;;17.19;76.71;63772.22;4986680;28;20222;-78
2022/10/26 08:26:29;;;;;;;8.00;4.85;;;;;;;17.18;76.27;63771.72;4991502;28;20227;-79
2022/10/26 08:28:56;;;;;;;7.78;5.13;;;;;;;17.31;77.64;63784.72;4991324;28;20203;-79
2022/10/26 08:31:23;;;;;;;5.95;4.75;;;;;;;17.34;77.51;63795.56;4995284;28;20310;-79
2022/10/26 08:33:50;;;;;;;6.30;4.85;;;;;;;17.49;74.86;63811.22;4984743;28;20207;-78
2022/10/26 08:36:20;;;;;;;9.18;4.03;;;;;;;17.40;75.61;63801.81;4981764;28;20272;-77
2022/10/26 08:38:47;;;;;;;9.43;4.75;;;;;;;17.32;77.37;63788.84;4979243;28;20208;-77
2022/10/26 08:41:16;;;;;;;7.28;4.78;;;;;;;17.28;77.94;63789.31;4985250;28;20227;-77
2022/10/26 08:43:49;;;;;;;9.80;4.40;;;;;;;17.47;74.59;63806.03;4984243;28;20200;-78
2022/10/26 08:46:21;;;;;;;5.32;4.47;;;;;;;17.28;74.44;63786.75;4984684;28;20264;-77
2022/10/26 08:48:52;;;;;;;7.30;4.18;;;;;;;17.25;72.04;63781.06;4984171;28;20220;-79
2022/10/26 08:51:24;;;;;;;4.07;3.70;;;;;;;17.24;72.41;63777.44;4996574;28;20247;-78
2022/10/26 08:53:56;;;;;;;7.97;3.58;;;;;;;17.40;70.31;63793.56;4988123;28;20215;-78
2022/10/26 08:56:26;;;;;;;7.00;3.83;;;;;;;17.57;69.67;63811.81;4989851;28;20214;-78
2022/10/26 08:58:56;;;;;;;6.57;2.95;;;;;;;17.64;69.52;63821.16;4997884;28;20221;-78
2022/10/26 09:01:23;;;;;;;8.13;2.88;;;;;;;17.70;68.41;63827.41;4986891;28;20266;-78
2022/10/26 09:03:50;;;;;;;11.20;3.67;;;;;;;17.77;67.71;63832.66;4984949;28;20204;-78
2022/10/26 09:06:30;;;;;;;8.02;3.92;;;;;;;17.79;68.39;63839.34;4985357;28;20226;-78
2022/10/26 09:09:07;;;;;;;6.35;3.42;;;;;;;18.04;67.94;63863.34;4995254;28;20247;-79
2022/10/26 09:11:54;;;;;;;4.25;3.40;;;;;;;18.00;66.23;63861.75;4986400;28;20226;-77
2022/10/26 09:14:29;;;;;;;5.60;3.20;;;;;;;17.99;64.53;63858.13;4986300;28;20382;-77
2022/10/26 09:17:08;;;;;;;11.77;4.28;;;;;;;18.25;63.11;63882.13;4988271;28;20223;-78
2022/10/26 09:20:02;;;;;;;5.15;3.28;;;;;;;18.46;62.10;63906.59;4987045;28;20493;-78
2022/10/26 09:22:40;;;;;;;10.57;3.47;;;;;;;18.38;62.82;63898.22;4973963;28;20277;-79
2022/10/26 09:25:17;;;;;;;5.95;3.13;;;;;;;18.45;63.51;63902.47;4990746;28;20225;-79
2022/10/26 09:27:50;;;;;;;6.03;2.75;;;;;;;18.29;59.50;63891.94;4990880;28;20245;-78
2022/10/26 09:30:19;;;;;;;2.92;2.60;;;;;;;18.45;60.21;63905.53;4989470;28;20379;-78
2022/10/26 09:32:48;;;;;;;11.23;7.65;;;;;;;18.64;61.36;63927.41;4991338;28;20636;-77
2022/10/26 09:35:19;;;;;;;2.67;2.28;;;;;;;18.62;56.41;63925.84;4987482;28;20207;-77
2022/10/26 09:37:51;;;;;;;4.45;2.60;;;;;;;18.69;57.27;63933.13;4979604;28;20421;-77
2022/10/26 09:40:25;;;;;;;2.75;2.20;;;;;;;18.71;55.55;63937.81;4992208;28;20218;-78
2022/10/26 09:42:59;;;;;;;5.38;2.35;;;;;;;18.60;57.72;63923.78;4982640;28;20527;-77
2022/10/26 09:45:32;;;;;;;8.23;3.40;;;;;;;18.53;58.79;63913.38;4990958;28;20246;-78
2022/10/26 09:48:09;;;;;;;3.85;2.60;;;;;;;18.70;58.16;63934.19;4991428;28;20223;-77
2022/10/26 09:50:39;;;;;;;8.43;3.83;;;;;;;18.80;58.51;63946.66;4990542;28;20238;-77
2022/10/26 09:53:06;;;;;;;6.68;3.40;;;;;;;18.86;58.72;63950.84;4985533;28;20612;-76
2022/10/26 09:55:35;;;;;;;5.30;3.30;;;;;;;18.87;59.20;63949.31;4988838;28;20211;-78
2022/10/26 09:58:11;;;;;;;4.65;2.88;;;;;;;19.05;57.87;63968.06;4988087;28;20547;-77
2022/10/26 10:00:38;;;;;;;4.88;2.35;;;;;;;18.82;55.43;63944.13;4980935;28;20196;-78
2022/10/26 10:03:18;;;;;;;8.52;3.97;;;;;;;18.93;54.88;63955.56;4979330;28;20220;-78
2022/10/26 10:05:45;;;;;;;8.23;4.07;;;;;;;19.04;53.79;63966.50;4972663;28;20210;-77
2022/10/26 10:08:17;;;;;;;2.38;2.20;;;;;;;19.07;53.40;63974.81;4979407;28;20276;-77
2022/10/26 10:10:58;;;;;;;3.95;3.15;;;;;;;18.94;53.10;63953.50;4984150;28;20202;-77
2022/10/26 10:13:29;;;;;;;3.83;2.20;;;;;;;19.19;52.28;63982.69;4980095;28;20223;-78
2022/10/26 10:16:06;;;;;;;2.17;2.00;;;;;;;19.27;52.45;63993.63;4978883;28;20239;-77
2022/10/26 10:18:33;;;;;;;5.18;3.53;;;;;;;19.23;53.12;63991.50;4984292;28;20207;-78
2022/10/26 10:21:01;;;;;;;2.95;2.42;;;;;;;19.46;52.95;64012.91;4987707;28;20269;-77
2022/10/26 10:23:31;;;;;;;7.95;3.00;;;;;;;19.57;53.55;64021.81;4977695;28;20200;-77
2022/10/26 10:26:04;;;;;;;5.90;2.45;;;;;;;19.71;52.81;64041.06;4983125;28;20231;-78
2022/10/26 10:28:33;;;;;;;5.60;2.30;;;;;;;19.92;52.84;64055.19;4984348;28;20238;-79
2022/10/26 10:31:01;;;;;;;3.78;2.88;;;;;;;20.04;52.59;64075.47;4988031;28;20203;-78
2022/10/26 10:33:39;;;;;;;6.38;2.40;;;;;;;19.84;52.99;64049.97;4988286;28;20239;-78
2022/10/26 10:36:10;;;;;;;2.70;2.47;;;;;;;20.09;52.35;64075.53;4990660;28;20222;-77
2022/10/26 10:38:39;;;;;;;7.43;3.20;;;;;;;20.09;52.43;64081.22;4986804;28;20450;-76
2022/10/26 10:41:17;;;;;;;3.70;3.00;;;;;;;20.22;52.48;64089.13;4988109;28;20219;-77
2022/10/26 10:43:48;;;;;;;4.70;3.63;;;;;;;20.33;51.62;64103.69;4984097;28;20206;-76
2022/10/26 10:46:21;;;;;;;10.68;8.63;;;;;;;20.40;51.39;64113.59;4985658;28;20578;-76
2022/10/26 10:48:53;;;;;;;5.53;2.88;;;;;;;20.43;50.62;64111.53;4990133;28;20207;-76
2022/10/26 10:51:23;;;;;;;5.43;2.83;;;;;;;20.45;50.55;64116.22;4989144;28;20223;-76
2022/10/26 10:53:52;;;;;;;5.82;2.75;;;;;;;20.46;51.23;64119.88;5006741;28;20526;-77
2022/10/26 10:56:33;;;;;;;3.50;2.30;;;;;;;20.55;50.22;64124.06;4992360;28;20227;-77
2022/10/26 10:59:28;;;;;;;4.88;2.53;;;;;;;20.57;49.28;64126.16;4986255;28;20196;-75
2022/10/26 11:02:13;;;;;;;7.30;2.90;;;;;;;20.49;49.64;64117.28;4988736;28;20231;-75
2022/10/26 11:04:57;;;;;;;2.72;2.30;;;;;;;20.27;49.96;64089.16;4982859;28;20199;-77
2022/10/26 11:07:26;;;;;;;3.70;2.75;;;;;;;20.12;51.29;64076.59;4985178;28;20227;-76
2022/10/26 11:09:55;;;;;;;3.28;2.88;;;;;;;20.32;51.51;64099.56;4987415;28;20207;-77
2022/10/26 11:12:29;;;;;;;7.55;2.50;;;;;;;20.39;52.12;64107.38;4987990;28;20434;-76
2022/10/26 11:15:04;;;;;;;4.72;3.60;;;;;;;20.54;51.16;64117.84;4994071;28;20207;-75
2022/10/26 11:17:36;;;;;;;6.38;2.50;;;;;;;20.19;51.91;64089.09;4971115;28;20247;-76
2022/10/26 11:20:06;;;;;;;2.50;2.15;;;;;;;20.15;52.04;64079.72;4981539;28;20221;-77
2022/10/26 11:22:39;;;;;;;3.65;2.25;;;;;;;20.16;52.51;64085.44;4988177;28;20274;-76
2022/10/26 11:25:13;;;;;;;4.28;2.38;;;;;;;20.42;51.66;64109.97;4979045;28;20230;-77
2022/10/26 11:27:45;;;;;;;3.20;2.58;;;;;;;20.48;51.93;64116.75;4981878;28;20235;-76
2022/10/26 11:30:18;;;;;;;2.65;2.47;;;;;;;20.48;51.78;64113.66;4970165;28;20196;-76
2022/10/26 11:32:50;;;;;;;2.83;2.53;;;;;;;20.65;51.16;64137.13;4986831;28;20235;-76
2022/10/26 11:35:23;;;;;;;2.53;2.33;;;;;;;20.47;51.70;64120.91;4991265;28;20207;-76
2022/10/26 11:37:56;;;;;;;2.65;2.53;;;;;;;20.49;51.54;64117.28;4989246;28;20255;-77
2022/10/26 11:40:29;;;;;;;4.15;2.30;;;;;;;20.63;51.46;64134.50;4987162;28;20238;-76
2022/10/26 11:43:05;;;;;;;4.07;2.80;;;;;;;20.87;50.16;64156.44;4987380;28;20286;-76
2022/10/26 11:45:39;;;;;;;5.80;2.10;;;;;;;20.43;51.05;64116.72;4985908;28;20207;-76